Lulu Pass Weather Station

This weather station provides temperature, relative humidity (RH), wind speed, gust or max wind speed, and wind direction at 10014ft near Lulu Pass at the head of Fisher Creek. This data can be used with temperature and precipitation data from the Fisher Creek SNOTEL site.

This weather station was purchased by the Friends of the Avalanche Center.

If the data has not been updated recently you can view it directly on datagarrison.com

Elevation
10014ft
Jump to table bottom
Date Time Temperature
deg F
RH, % Wind Speed Wind Gust Wind Direction
12/18/18 05:07 17.8 95 12 29 SW - 213
12/18/18 04:07 18.5 95 10 33 SW - 220
12/18/18 03:07 18.8 95 9 27 SW - 227
12/18/18 02:07 19.4 96 7 23 SW - 233
12/18/18 01:07 19.2 95 11 27 SW - 247
12/18/18 00:07 19.2 95 13 27 SW - 244
12/17/18 23:07 19.5 95 10 23 SW - 244
12/17/18 22:07 19.5 95 11 25 SW - 236
12/17/18 21:07 19.9 95 8 21 SW - 233
12/17/18 20:07 20.0 95 8 28 SW - 239
12/17/18 19:07 20.0 94 11 25 SW - 237
12/17/18 18:07 20.3 89 7 24 SW - 241
12/17/18 17:07 21.2 83 11 24 SW - 234
12/17/18 16:07 22.8 77 9 20 SW - 243
12/17/18 15:07 24.3 73 9 25 SW - 237
12/17/18 14:07 25.4 71 7 17 SW - 233
12/17/18 13:07 25.1 69 12 27 SW - 218
12/17/18 12:07 25.2 70 14 29 SW - 215
12/17/18 11:07 24.9 69 16 34 SW - 209
12/17/18 10:07 25.3 68 14 30 SW - 215
12/17/18 09:07 24.8 65 17 31 SW - 209
12/17/18 08:07 24.8 64 15 28 SW - 211
12/17/18 07:07 24.7 63 12 25 SW - 219
12/17/18 06:07 24.1 62 10 23 SW - 234
12/17/18 05:07 24.4 60 15 33 SW - 225
12/17/18 04:07 25.7 60 22 38 SW - 212
12/17/18 03:07 25.7 61 22 35 SW - 209
12/17/18 02:07 24.9 62 18 39 SW - 213
12/17/18 01:07 25.7 61 16 31 SW - 215
12/17/18 00:07 25.1 60 20 33 SW - 211
12/16/18 23:07 25.7 58 21 41 SW - 211
12/16/18 22:07 25.4 56 16 31 SW - 216
12/16/18 21:07 26.1 54 20 34 SW - 211
12/16/18 20:07 25.8 53 14 28 SW - 215
12/16/18 19:07 25.0 51 14 28 SW - 216
12/16/18 18:07 25.3 48 14 30 S - 202
12/16/18 17:07 26.3 50 15 26 SW - 212
12/16/18 16:07 27.1 49 12 20 SW - 215
12/16/18 15:07 28.1 49 5 14 W - 251
12/16/18 14:07 28.1 51 7 18 SW - 236
12/16/18 13:07 26.6 53 6 14 W - 261
12/16/18 12:07 24.6 56 4 10 NW - 336
12/16/18 11:07 22.4 62 6 14 NW - 309
12/16/18 10:07 22.7 72 6 21 W - 267
12/16/18 09:07 20.8 86 5 19 NW - 295
12/16/18 08:07 18.8 91 7 15 W - 257
12/16/18 07:07 18.7 92 7 17 W - 250
12/16/18 06:07 19.1 95 9 21 W - 271
12/16/18 05:07 19.2 96 10 25 W - 265
12/16/18 04:07 18.9 96 7 23 W - 274